EZS73RT BKPR-LSGG
Flight info
| Callsign | EZS73RT |
|---|---|
| Flight time | N/A |
| Altitude | 18000 |
| Route | KUKAD1D/35 KUKAD DCT RETRA/N0437F380 DCT TIBRI DCT BALHA DCT NERRA DCT TIKSA DCT SIPAL DCT BAXON DCT SRN/N0419F320 DCT OMETO/N0369F220 DCT TERSI DCT AOSTA L615 BANKO |
| Aircraft | A320/M-SDE2E3FGHIJ1RWXYZ/LB1 |
Departure
| Time | N/A |
|---|---|
| Airport | Priština Adem Jashari International Airport (BKPR) |
Arrival
| Time | 2026-05-03 20:27 |
|---|---|
| Airport | Geneva International Airport (LSGG) |
| Time | Latitude | Longitude | Altitude | Speed | Heading |
|---|---|---|---|---|---|
| 2026-05-03 20:15 | 45.94179 | 7.00515 | 21447 ft | 403 kts | 307° |
| 2026-05-03 20:15 | 45.96003 | 6.97472 | 20863 ft | 400 kts | 308° |
| 2026-05-03 20:15 | 45.98027 | 6.94808 | 20286 ft | 401 kts | 318° |
| 2026-05-03 20:15 | 46.00205 | 6.92311 | 19752 ft | 398 kts | 318° |
| 2026-05-03 20:16 | 46.02360 | 6.89846 | 19197 ft | 395 kts | 318° |
| 2026-05-03 20:16 | 46.04498 | 6.87391 | 18672 ft | 392 kts | 318° |
| 2026-05-03 20:16 | 46.06618 | 6.84945 | 18139 ft | 389 kts | 318° |
| 2026-05-03 20:16 | 46.08722 | 6.82509 | 17550 ft | 387 kts | 318° |
| 2026-05-03 20:17 | 46.10819 | 6.80076 | 17034 ft | 387 kts | 318° |
| 2026-05-03 20:17 | 46.12903 | 6.77654 | 16586 ft | 382 kts | 318° |
| 2026-05-03 20:17 | 46.14957 | 6.75255 | 16097 ft | 379 kts | 318° |
| 2026-05-03 20:17 | 46.16983 | 6.72865 | 15804 ft | 371 kts | 318° |
| 2026-05-03 20:18 | 46.18950 | 6.70546 | 15680 ft | 359 kts | 318° |
| 2026-05-03 20:18 | 46.20855 | 6.68303 | 15546 ft | 348 kts | 318° |
| 2026-05-03 20:18 | 46.22700 | 6.66133 | 15428 ft | 337 kts | 318° |
| 2026-05-03 20:18 | 46.24492 | 6.64034 | 15298 ft | 327 kts | 318° |
| 2026-05-03 20:19 | 46.26234 | 6.61991 | 15147 ft | 319 kts | 318° |
| 2026-05-03 20:19 | 46.27946 | 6.59982 | 14875 ft | 314 kts | 318° |
| 2026-05-03 20:19 | 46.29632 | 6.58007 | 14263 ft | 311 kts | 318° |
| 2026-05-03 20:19 | 46.31314 | 6.56046 | 13629 ft | 309 kts | 318° |
| 2026-05-03 20:20 | 46.32985 | 6.54100 | 12984 ft | 308 kts | 318° |
| 2026-05-03 20:20 | 46.34646 | 6.52164 | 12316 ft | 306 kts | 318° |
| 2026-05-03 20:20 | 46.36290 | 6.50243 | 11495 ft | 302 kts | 318° |
| 2026-05-03 20:20 | 46.37921 | 6.48335 | 10537 ft | 301 kts | 318° |
| 2026-05-03 20:21 | 46.39544 | 6.46432 | 9588 ft | 299 kts | 317° |
| 2026-05-03 20:21 | 46.41016 | 6.44367 | 8636 ft | 290 kts | 304° |
| 2026-05-03 20:21 | 46.41875 | 6.41829 | 7748 ft | 275 kts | 276° |
| 2026-05-03 20:21 | 46.41908 | 6.39148 | 6891 ft | 261 kts | 255° |
| 2026-05-03 20:22 | 46.41244 | 6.36760 | 6170 ft | 255 kts | 232° |
| 2026-05-03 20:22 | 46.40067 | 6.34874 | 5573 ft | 248 kts | 224° |
| 2026-05-03 20:22 | 46.38890 | 6.33144 | 5248 ft | 234 kts | 224° |
| 2026-05-03 20:22 | 46.37783 | 6.31508 | 4959 ft | 222 kts | 224° |
| 2026-05-03 20:23 | 46.36728 | 6.29947 | 4658 ft | 212 kts | 225° |
| 2026-05-03 20:23 | 46.35717 | 6.28451 | 4362 ft | 203 kts | 225° |
| 2026-05-03 20:23 | 46.34758 | 6.27031 | 4108 ft | 192 kts | 225° |
| 2026-05-03 20:23 | 46.33842 | 6.25679 | 3875 ft | 185 kts | 225° |
| 2026-05-03 20:24 | 46.32947 | 6.24359 | 3614 ft | 183 kts | 225° |
| 2026-05-03 20:24 | 46.32072 | 6.23067 | 3398 ft | 181 kts | 225° |
| 2026-05-03 20:24 | 46.31212 | 6.21798 | 3149 ft | 171 kts | 225° |
| 2026-05-03 20:24 | 46.30407 | 6.20611 | 2937 ft | 159 kts | 225° |
| 2026-05-03 20:25 | 46.29654 | 6.19501 | 2724 ft | 152 kts | 225° |
| 2026-05-03 20:25 | 46.28918 | 6.18417 | 2519 ft | 150 kts | 225° |
| 2026-05-03 20:25 | 46.28191 | 6.17347 | 2325 ft | 148 kts | 225° |
| 2026-05-03 20:25 | 46.27467 | 6.16283 | 2127 ft | 148 kts | 225° |
| 2026-05-03 20:26 | 46.26746 | 6.15219 | 1915 ft | 148 kts | 226° |
| 2026-05-03 20:26 | 46.26022 | 6.14154 | 1716 ft | 149 kts | 226° |
| 2026-05-03 20:26 | 46.25290 | 6.13079 | 1502 ft | 150 kts | 226° |
| 2026-05-03 20:26 | 46.24571 | 6.12018 | 1372 ft | 137 kts | 226° |
| 2026-05-03 20:27 | 46.24025 | 6.11216 | 1376 ft | 82 kts | 225° |
| 2026-05-03 20:27 | 46.23801 | 6.10890 | 1379 ft | 19 kts | 222° |
| 2026-05-03 20:27 | 46.23688 | 6.10777 | 1379 ft | 21 kts | 206° |
| 2026-05-03 20:27 | 46.23560 | 6.10713 | 1383 ft | 15 kts | 195° |
| 2026-05-03 20:28 | 46.23473 | 6.10678 | 1389 ft | 10 kts | 194° |
| 2026-05-03 20:28 | 46.23412 | 6.10712 | 1407 ft | 9 kts | 136° |
| 2026-05-03 20:28 | 46.23373 | 6.10767 | 1399 ft | 9 kts | 136° |
| 2026-05-03 20:28 | 46.23359 | 6.10847 | 1404 ft | 12 kts | 58° |
| 2026-05-03 20:29 | 46.23418 | 6.10938 | 1393 ft | 13 kts | 46° |
| 2026-05-03 20:29 | 46.23481 | 6.11030 | 1404 ft | 13 kts | 45° |
| 2026-05-03 20:29 | 46.23549 | 6.11130 | 1398 ft | 15 kts | 45° |
| 2026-05-03 20:29 | 46.23588 | 6.11224 | 1397 ft | 9 kts | 109° |
| 2026-05-03 20:30 | 46.23561 | 6.11265 | 1399 ft | 1 kts | 141° |
| 2026-05-03 20:30 | 46.23557 | 6.11270 | 1392 ft | 0 kts | 141° |